createdAt,value
2022-11-25T00:03:47.909Z,13.80
2022-11-25T00:06:27.805Z,14.32
2022-11-25T00:08:59.961Z,13.52
2022-11-25T00:11:27.459Z,10.93
2022-11-25T00:13:55.235Z,10.75
2022-11-25T00:16:24.411Z,15.57
2022-11-25T00:18:52.921Z,16.40
2022-11-25T00:21:22.106Z,12.20
2022-11-25T00:23:53.963Z,12.23
2022-11-25T00:26:21.988Z,17.38
2022-11-25T00:28:49.595Z,15.32
2022-11-25T00:31:19.727Z,15.23
2022-11-25T00:33:47.004Z,20.95
2022-11-25T00:36:35.665Z,14.32
2022-11-25T00:39:09.828Z,15.05
2022-11-25T00:41:54.957Z,21.67
2022-11-25T00:44:38.416Z,12.93
2022-11-25T00:47:09.212Z,15.82
2022-11-25T00:49:37.407Z,16.35
2022-11-25T00:52:05.598Z,11.95
2022-11-25T00:54:32.812Z,9.85
2022-11-25T00:57:00.102Z,15.95
2022-11-25T00:59:28.688Z,19.42
2022-11-25T01:01:56.355Z,12.15
2022-11-25T01:04:23.778Z,13.35
2022-11-25T01:06:50.657Z,12.63
2022-11-25T01:09:17.397Z,6.93
2022-11-25T01:11:44.036Z,11.70
2022-11-25T01:14:10.975Z,9.73
2022-11-25T01:16:38.037Z,15.30
2022-11-25T01:19:05.015Z,12.68
2022-11-25T01:21:34.087Z,13.63
2022-11-25T01:24:02.351Z,12.32
2022-11-25T01:26:30.138Z,13.00
2022-11-25T01:29:02.285Z,13.55
2022-11-25T01:31:31.396Z,15.50
2022-11-25T01:34:00.890Z,12.77
2022-11-25T01:36:28.335Z,16.20
2022-11-25T01:38:57.502Z,17.95
2022-11-25T01:41:27.076Z,14.60
2022-11-25T01:44:20.404Z,11.73
2022-11-25T01:47:10.679Z,11.23
2022-11-25T01:49:40.047Z,12.88
2022-11-25T01:52:27.236Z,17.58
2022-11-25T01:55:08.028Z,13.15
2022-11-25T01:57:49.539Z,13.82
2022-11-25T02:00:16.669Z,15.48
2022-11-25T02:02:43.926Z,11.32
2022-11-25T02:05:14.994Z,12.32
2022-11-25T02:07:45.218Z,14.63
2022-11-25T02:10:15.657Z,13.27
2022-11-25T02:12:45.187Z,14.48
2022-11-25T02:15:13.065Z,17.63
2022-11-25T02:17:40.128Z,15.95
2022-11-25T02:20:13.896Z,16.25
2022-11-25T02:23:04.645Z,16.17
2022-11-25T02:25:36.762Z,12.68
2022-11-25T02:28:13.991Z,12.32
2022-11-25T02:30:41.214Z,11.57
2022-11-25T02:33:08.059Z,8.73
2022-11-25T02:35:40.731Z,14.20
2022-11-25T02:38:22.136Z,13.10
2022-11-25T02:41:01.971Z,13.98
2022-11-25T02:43:30.273Z,14.02
2022-11-25T02:46:04.196Z,9.10
2022-11-25T02:49:06.773Z,15.30
2022-11-25T02:51:22.267Z,12.43
2022-11-25T02:53:49.503Z,9.32
2022-11-25T02:56:17.261Z,13.90
2022-11-25T02:58:44.269Z,16.23
2022-11-25T03:01:11.243Z,14.80
2022-11-25T03:03:38.635Z,16.20
2022-11-25T03:06:05.619Z,11.63
2022-11-25T03:08:32.228Z,15.23
2022-11-25T03:10:58.830Z,10.25
2022-11-25T03:13:25.824Z,13.05
2022-11-25T03:15:52.429Z,13.38
2022-11-25T03:18:19.019Z,15.00
2022-11-25T03:20:45.687Z,17.08
2022-11-25T03:23:12.353Z,8.77
2022-11-25T03:25:39.357Z,10.07
2022-11-25T03:28:06.056Z,12.32
2022-11-25T03:30:32.693Z,11.82
2022-11-25T03:32:59.414Z,11.85
2022-11-25T03:35:26.125Z,15.32
2022-11-25T03:37:52.710Z,11.13
2022-11-25T03:40:19.395Z,12.50
2022-11-25T03:42:46.435Z,14.50
2022-11-25T03:45:15.594Z,14.25
2022-11-25T03:47:43.196Z,10.25
2022-11-25T03:50:12.511Z,9.93
2022-11-25T03:52:39.853Z,9.23
2022-11-25T03:55:07.935Z,12.80
2022-11-25T03:57:35.261Z,11.82
2022-11-25T04:00:02.809Z,12.20
2022-11-25T04:02:29.469Z,7.85
2022-11-25T04:04:56.212Z,9.40
2022-11-25T04:07:23.025Z,6.40
2022-11-25T04:09:49.982Z,6.03
2022-11-25T04:12:35.097Z,11.32
2022-11-25T04:15:01.745Z,8.25
2022-11-25T04:17:28.340Z,4.68
2022-11-25T04:19:54.980Z,10.27
2022-11-25T04:22:21.637Z,6.38
2022-11-25T04:24:48.309Z,4.55
2022-11-25T04:27:15.316Z,9.43
2022-11-25T04:29:41.953Z,3.38
2022-11-25T04:32:08.791Z,5.72
2022-11-25T04:34:36.567Z,5.10
2022-11-25T04:37:03.537Z,9.52
2022-11-25T04:39:30.163Z,4.78
2022-11-25T04:42:16.741Z,7.35
2022-11-25T04:44:55.865Z,4.40
2022-11-25T04:47:30.678Z,5.50
2022-11-25T04:49:57.418Z,2.90
2022-11-25T04:52:24.243Z,5.93
2022-11-25T04:54:51.070Z,2.55
2022-11-25T04:57:17.785Z,4.13
2022-11-25T04:59:44.645Z,2.88
2022-11-25T05:02:17.660Z,1.80
2022-11-25T05:04:46.119Z,2.55
2022-11-25T05:07:13.531Z,3.78
2022-11-25T05:09:40.309Z,4.63
2022-11-25T05:12:11.319Z,3.22
2022-11-25T05:14:38.151Z,3.15
2022-11-25T05:17:06.513Z,3.55
2022-11-25T05:19:35.898Z,10.05
2022-11-25T05:22:02.677Z,3.88
2022-11-25T05:24:29.529Z,2.78
2022-11-25T05:26:56.263Z,5.90
2022-11-25T05:29:22.966Z,6.90
2022-11-25T05:31:49.589Z,3.30
2022-11-25T05:34:16.216Z,5.05
2022-11-25T05:36:42.892Z,5.45
2022-11-25T05:39:09.931Z,7.47
2022-11-25T05:41:36.593Z,3.45
2022-11-25T05:44:05.202Z,3.42
2022-11-25T05:46:32.415Z,2.50
2022-11-25T05:48:59.179Z,4.50
2022-11-25T05:51:26.313Z,5.07
2022-11-25T05:53:53.042Z,4.38
2022-11-25T05:56:19.785Z,4.93
2022-11-25T05:58:46.548Z,3.03
2022-11-25T06:01:14.820Z,3.88
2022-11-25T06:03:42.524Z,4.05
2022-11-25T06:06:10.028Z,3.78
2022-11-25T06:08:37.870Z,2.80
2022-11-25T06:11:06.552Z,5.38
2022-11-25T06:13:33.750Z,5.00
2022-11-25T06:16:07.458Z,4.82
2022-11-25T06:18:35.333Z,4.40
2022-11-25T06:21:02.132Z,4.30
2022-11-25T06:23:28.700Z,3.70
2022-11-25T06:25:55.598Z,7.35
2022-11-25T06:28:22.193Z,5.70
2022-11-25T06:30:48.846Z,3.88
2022-11-25T06:33:15.673Z,2.80
2022-11-25T06:35:42.275Z,3.30
2022-11-25T06:38:09.546Z,7.03
2022-11-25T06:40:36.332Z,4.07
2022-11-25T06:43:04.889Z,7.22
2022-11-25T06:45:32.982Z,8.27
2022-11-25T06:47:59.815Z,8.32
2022-11-25T06:50:26.538Z,5.03
2022-11-25T06:52:53.126Z,4.40
2022-11-25T06:55:19.834Z,6.15
2022-11-25T06:57:46.572Z,8.65
2022-11-25T07:00:13.791Z,5.45
2022-11-25T07:02:45.281Z,5.18
2022-11-25T07:07:41.534Z,5.43
2022-11-25T07:10:08.960Z,7.40
2022-11-25T07:12:35.681Z,4.10
2022-11-25T07:15:02.266Z,4.30
2022-11-25T07:17:28.849Z,9.18
2022-11-25T07:19:55.633Z,7.15
2022-11-25T07:22:22.882Z,3.47
2022-11-25T07:24:49.454Z,3.95
2022-11-25T07:27:16.285Z,7.88
2022-11-25T07:30:41.063Z,5.57
2022-11-25T07:32:32.798Z,5.05
2022-11-25T07:34:59.449Z,4.35
2022-11-25T07:37:27.629Z,4.03
2022-11-25T07:39:54.427Z,7.13
2022-11-25T07:42:21.179Z,4.18
2022-11-25T07:44:49.005Z,9.32
2022-11-25T07:47:15.934Z,7.25
2022-11-25T07:49:42.802Z,6.07
2022-11-25T07:52:09.501Z,6.93
2022-11-25T07:54:36.442Z,4.80
2022-11-25T07:57:03.071Z,5.28
2022-11-25T07:59:29.990Z,6.40
2022-11-25T08:01:56.795Z,10.00
2022-11-25T08:04:24.196Z,7.28
2022-11-25T08:06:52.834Z,4.53
2022-11-25T08:09:23.520Z,5.07
2022-11-25T08:11:50.739Z,4.20
2022-11-25T08:14:18.087Z,5.45
2022-11-25T08:16:45.357Z,9.65
2022-11-25T08:19:15.346Z,6.57
2022-11-25T08:21:42.616Z,7.63
2022-11-25T08:24:17.920Z,10.70
2022-11-25T08:26:45.027Z,5.35
2022-11-25T08:29:15.325Z,9.13
2022-11-25T08:31:43.206Z,6.45
2022-11-25T08:34:18.813Z,6.20
2022-11-25T08:36:48.600Z,7.72
2022-11-25T08:42:04.747Z,9.77
2022-11-25T08:44:31.381Z,7.78
2022-11-25T08:46:58.101Z,6.72
2022-11-25T08:49:26.895Z,5.18
2022-11-25T08:51:53.848Z,9.70
2022-11-25T08:54:20.586Z,7.65
2022-11-25T08:56:47.289Z,7.07
2022-11-25T08:59:14.024Z,5.70
2022-11-25T09:01:40.825Z,6.88
2022-11-25T09:04:07.798Z,7.25
2022-11-25T09:06:34.672Z,4.45
2022-11-25T09:09:02.046Z,3.72
2022-11-25T09:11:29.452Z,6.38
2022-11-25T09:13:56.250Z,7.15
2022-11-25T09:16:23.245Z,6.82
2022-11-25T09:18:55.602Z,11.20
2022-11-25T09:21:24.791Z,8.85
2022-11-25T09:23:54.107Z,7.85
2022-11-25T09:26:29.366Z,5.72
2022-11-25T09:28:57.600Z,8.02
2022-11-25T09:31:27.265Z,7.50
2022-11-25T09:33:57.338Z,8.73
2022-11-25T09:36:24.956Z,9.23
2022-11-25T09:38:52.357Z,8.65
2022-11-25T09:42:08.603Z,7.80
2022-11-25T09:45:20.916Z,7.68
2022-11-25T09:48:01.033Z,5.82
2022-11-25T09:50:50.087Z,8.40
2022-11-25T09:53:26.359Z,6.00
2022-11-25T09:56:01.457Z,8.18
2022-11-25T09:58:45.862Z,9.30
2022-11-25T10:01:18.365Z,10.10
2022-11-25T10:03:50.587Z,10.27
2022-11-25T10:06:29.675Z,7.35
2022-11-25T10:09:01.033Z,9.38
2022-11-25T10:11:58.102Z,10.35
2022-11-25T10:14:50.889Z,6.50
2022-11-25T10:17:36.436Z,8.82
2022-11-25T10:20:06.504Z,3.30
2022-11-25T10:22:59.651Z,7.43
2022-11-25T10:25:34.428Z,9.05
2022-11-25T10:28:22.436Z,6.22
2022-11-25T10:31:16.625Z,10.90
2022-11-25T10:33:48.984Z,7.18
2022-11-25T10:36:34.874Z,10.65
2022-11-25T10:39:07.827Z,8.32
2022-11-25T10:42:08.370Z,9.07
2022-11-25T10:44:38.199Z,10.75
2022-11-25T10:47:38.061Z,9.23
2022-11-25T10:50:31.728Z,6.20
2022-11-25T10:53:09.484Z,8.43
2022-11-25T10:55:36.433Z,8.95
2022-11-25T10:58:28.151Z,7.50
2022-11-25T11:01:17.437Z,7.60
2022-11-25T11:03:46.308Z,5.85
2022-11-25T11:06:36.175Z,12.70
2022-11-25T11:09:03.803Z,8.23
2022-11-25T11:11:31.440Z,13.15
2022-11-25T11:14:12.816Z,11.38
2022-11-25T11:16:42.982Z,7.85
2022-11-25T11:19:31.105Z,13.98
2022-11-25T11:22:15.722Z,10.98
2022-11-25T11:24:42.579Z,11.15
2022-11-25T11:27:24.268Z,7.07
2022-11-25T11:30:21.836Z,7.72
2022-11-25T11:33:02.951Z,10.20
2022-11-25T11:35:54.753Z,8.95
2022-11-25T11:38:37.749Z,11.73
2022-11-25T11:41:21.299Z,11.45
2022-11-25T11:44:21.408Z,9.18
2022-11-25T11:47:05.322Z,9.63
2022-11-25T11:50:01.418Z,8.02
2022-11-25T11:52:58.731Z,7.78
2022-11-25T11:55:37.368Z,9.10
2022-11-25T11:58:19.675Z,10.27
2022-11-25T12:00:59.125Z,13.45
2022-11-25T12:03:29.615Z,13.93
2022-11-25T12:06:00.632Z,11.18
2022-11-25T12:08:30.311Z,11.10
2022-11-25T12:11:03.486Z,5.68
2022-11-25T12:13:45.701Z,6.38
2022-11-25T12:16:20.156Z,10.20
2022-11-25T12:18:55.763Z,8.02
2022-11-25T12:21:28.295Z,6.95
2022-11-25T12:24:10.454Z,9.15
2022-11-25T12:26:46.201Z,8.30
2022-11-25T12:29:33.782Z,10.05
2022-11-25T12:32:20.110Z,14.85
2022-11-25T12:35:19.162Z,11.77
2022-11-25T12:38:04.419Z,8.88
2022-11-25T12:40:34.624Z,8.30
2022-11-25T12:43:41.793Z,10.75
2022-11-25T12:46:15.596Z,9.93
2022-11-25T12:48:43.314Z,4.00
2022-11-25T12:51:24.694Z,12.35
2022-11-25T12:54:26.668Z,10.23
2022-11-25T12:57:15.286Z,7.93
2022-11-25T13:00:41.027Z,6.47
2022-11-25T13:03:14.096Z,14.02
2022-11-25T13:05:49.999Z,13.02
2022-11-25T13:08:56.516Z,7.63
2022-11-25T13:11:53.206Z,9.85
2022-11-25T13:14:56.038Z,6.57
2022-11-25T13:17:24.564Z,8.50
2022-11-25T13:20:29.265Z,10.68
2022-11-25T13:23:10.655Z,7.43
2022-11-25T13:25:40.133Z,8.50
2022-11-25T13:28:35.704Z,15.10
2022-11-25T13:31:14.815Z,12.77
2022-11-25T13:33:44.662Z,6.18
2022-11-25T13:36:45.062Z,11.07
2022-11-25T13:39:16.023Z,15.32
2022-11-25T13:41:47.358Z,6.53
2022-11-25T13:44:35.185Z,14.23
2022-11-25T13:47:25.108Z,9.45
2022-11-25T13:49:58.429Z,9.40
2022-11-25T13:52:42.215Z,13.10
2022-11-25T13:55:24.105Z,9.33
2022-11-25T13:58:24.604Z,14.48
2022-11-25T14:01:02.574Z,14.68
2022-11-25T14:03:29.179Z,11.57
2022-11-25T14:06:23.270Z,11.93
2022-11-25T14:09:05.583Z,9.87
2022-11-25T14:11:56.602Z,11.27
2022-11-25T14:15:05.026Z,11.68
2022-11-25T14:17:53.548Z,13.80
2022-11-25T14:20:38.718Z,11.75
2022-11-25T14:23:47.159Z,9.77
2022-11-25T14:26:48.894Z,8.30
2022-11-25T14:29:28.913Z,9.98
2022-11-25T14:32:01.074Z,15.90
2022-11-25T14:34:33.426Z,9.77
2022-11-25T14:37:12.369Z,11.07
2022-11-25T14:39:52.655Z,11.90
2022-11-25T14:42:24.030Z,14.20
2022-11-25T14:44:52.913Z,12.95
2022-11-25T14:47:28.317Z,13.68
2022-11-25T14:50:33.790Z,12.52
2022-11-25T14:52:47.688Z,18.20
2022-11-25T14:55:28.473Z,12.77
2022-11-25T14:57:55.818Z,11.65
2022-11-25T15:00:23.293Z,9.93
2022-11-25T15:03:02.103Z,25.77
2022-11-25T15:05:37.672Z,9.60
2022-11-25T15:08:13.302Z,12.43
2022-11-25T15:10:51.473Z,11.82
2022-11-25T15:13:39.379Z,10.70
2022-11-25T15:16:20.668Z,14.50
2022-11-25T15:18:54.055Z,13.77
2022-11-25T15:21:25.743Z,14.77
2022-11-25T15:23:52.560Z,14.30
2022-11-25T15:26:22.620Z,11.75
2022-11-25T15:28:58.144Z,11.57
2022-11-25T15:31:33.128Z,15.70
2022-11-25T15:34:10.318Z,16.52
2022-11-25T15:36:37.110Z,10.55
2022-11-25T15:39:33.421Z,16.55
2022-11-25T15:42:06.974Z,16.90
2022-11-25T15:44:45.958Z,12.18
2022-11-25T15:47:23.352Z,16.10
2022-11-25T15:50:14.542Z,11.63
2022-11-25T15:52:45.299Z,16.77
2022-11-25T15:55:38.013Z,18.42
2022-11-25T15:58:18.746Z,13.48
2022-11-25T16:01:02.036Z,17.40
2022-11-25T16:03:31.500Z,15.13
2022-11-25T16:05:59.194Z,14.93
2022-11-25T16:08:36.489Z,18.70
2022-11-25T16:11:19.226Z,18.80
2022-11-25T16:13:47.979Z,21.42
2022-11-25T16:16:17.984Z,16.65
2022-11-25T16:18:50.633Z,17.08
2022-11-25T16:21:24.130Z,16.00
2022-11-25T16:23:55.645Z,23.80
2022-11-25T16:26:49.003Z,15.50
2022-11-25T16:29:36.336Z,17.35
2022-11-25T16:32:25.426Z,13.52
2022-11-25T16:34:52.102Z,18.60
2022-11-25T16:37:18.915Z,13.50
2022-11-25T16:39:45.693Z,20.70
2022-11-25T16:42:21.289Z,18.98
2022-11-25T16:44:50.744Z,18.63
2022-11-25T16:47:18.976Z,13.82
2022-11-25T16:49:46.576Z,20.88
2022-11-25T16:52:13.930Z,12.88
2022-11-25T16:54:41.774Z,18.85
2022-11-25T16:57:17.194Z,18.95
2022-11-25T16:59:45.188Z,11.82
2022-11-25T17:02:22.008Z,11.38
2022-11-25T17:04:49.358Z,12.52
2022-11-25T17:07:32.661Z,15.43
2022-11-25T17:10:00.210Z,11.05
2022-11-25T17:12:33.211Z,10.25
2022-11-25T17:15:01.337Z,13.90
2022-11-25T17:17:28.694Z,12.18
2022-11-25T17:19:55.451Z,11.40
2022-11-25T17:22:25.332Z,9.88
2022-11-25T17:24:52.020Z,12.20
2022-11-25T17:27:24.863Z,8.18
2022-11-25T17:29:52.566Z,7.53
2022-11-25T17:32:19.563Z,12.02
2022-11-25T17:34:46.359Z,9.00
2022-11-25T17:37:18.348Z,12.57
2022-11-25T17:39:45.060Z,14.13
2022-11-25T17:42:16.664Z,13.35
2022-11-25T17:44:48.581Z,6.95
2022-11-25T17:47:17.959Z,9.27
2022-11-25T17:49:45.824Z,8.65
2022-11-25T17:52:12.656Z,7.00
2022-11-25T17:54:39.811Z,8.80
2022-11-25T17:57:10.982Z,11.25
2022-11-25T17:59:37.854Z,8.50
2022-11-25T18:02:21.593Z,8.48
2022-11-25T18:04:49.600Z,9.10
2022-11-25T18:07:17.998Z,8.93
2022-11-25T18:09:45.380Z,6.47
2022-11-25T18:12:30.712Z,7.38
2022-11-25T18:14:57.713Z,9.13
2022-11-25T18:17:24.865Z,8.18
2022-11-25T18:19:55.347Z,9.75
2022-11-25T18:22:23.787Z,9.15
2022-11-25T18:24:50.490Z,12.63
2022-11-25T18:27:27.094Z,8.65
2022-11-25T18:29:55.449Z,6.47
2022-11-25T18:32:23.464Z,9.45
2022-11-25T18:34:51.464Z,5.70
2022-11-25T18:37:18.369Z,6.80
2022-11-25T18:39:45.023Z,6.80
2022-11-25T18:42:24.421Z,8.15
2022-11-25T18:44:51.308Z,11.13
2022-11-25T18:47:18.017Z,13.43
2022-11-25T18:49:44.623Z,9.32
2022-11-25T18:52:11.380Z,12.90
2022-11-25T18:54:38.283Z,11.00
2022-11-25T18:57:05.316Z,10.30
2022-11-25T18:59:37.251Z,9.90
2022-11-25T19:02:09.817Z,8.10
2022-11-25T19:04:38.907Z,11.10
2022-11-25T19:07:05.712Z,12.90
2022-11-25T19:09:32.489Z,12.18
2022-11-25T19:11:59.912Z,11.68
2022-11-25T19:14:34.743Z,10.35
2022-11-25T19:17:09.391Z,10.38
2022-11-25T19:19:37.955Z,8.60
2022-11-25T19:22:11.338Z,7.55
2022-11-25T19:24:38.197Z,13.93
2022-11-25T19:27:05.254Z,8.25
2022-11-25T19:29:42.231Z,9.50
2022-11-25T19:32:20.864Z,7.22
2022-11-25T19:34:53.030Z,11.45
2022-11-25T19:37:21.471Z,9.95
2022-11-25T19:39:50.382Z,8.32
2022-11-25T19:42:17.212Z,5.60
2022-11-25T19:44:45.169Z,8.57
2022-11-25T19:47:24.048Z,14.27
2022-11-25T19:49:54.303Z,5.55
2022-11-25T19:52:33.123Z,8.07
2022-11-25T19:55:00.054Z,13.43
2022-11-25T19:57:27.575Z,8.50
2022-11-25T19:59:54.384Z,11.55
2022-11-25T20:02:23.802Z,13.45
2022-11-25T20:04:55.604Z,10.45
2022-11-25T20:07:22.561Z,10.43
2022-11-25T20:09:51.521Z,14.38
2022-11-25T20:12:24.350Z,9.93
2022-11-25T20:14:51.800Z,8.52
2022-11-25T20:17:30.922Z,7.57
2022-11-25T20:20:02.848Z,8.30
2022-11-25T20:22:34.994Z,10.02
2022-11-25T20:25:04.235Z,8.88
2022-11-25T20:27:30.886Z,7.97
2022-11-25T20:29:57.735Z,9.55
2022-11-25T20:32:24.276Z,11.95
2022-11-25T20:34:50.892Z,9.82
2022-11-25T20:37:23.665Z,8.63
2022-11-25T20:39:55.971Z,9.82
2022-11-25T20:42:23.088Z,8.52
2022-11-25T20:44:53.347Z,8.68
2022-11-25T20:47:26.490Z,10.98
2022-11-25T20:49:54.058Z,8.40
2022-11-25T20:52:23.932Z,13.13
2022-11-25T20:54:50.630Z,10.35
2022-11-25T20:57:17.357Z,9.02
2022-11-25T20:59:44.515Z,10.63
2022-11-25T21:02:11.445Z,12.18
2022-11-25T21:04:38.552Z,10.75
2022-11-25T21:07:13.224Z,10.02
2022-11-25T21:09:40.765Z,7.75
2022-11-25T21:12:18.596Z,12.60
2022-11-25T21:14:47.086Z,7.40
2022-11-25T21:17:13.725Z,11.20
2022-11-25T21:19:40.432Z,7.68
2022-11-25T21:22:07.336Z,6.93
2022-11-25T21:24:38.831Z,11.23
2022-11-25T21:27:14.480Z,9.45
2022-11-25T21:29:43.810Z,9.35
2022-11-25T21:32:22.432Z,9.63
2022-11-25T21:34:49.689Z,8.93
2022-11-25T21:37:19.293Z,8.18
2022-11-25T21:39:45.948Z,13.23
2022-11-25T21:42:19.403Z,6.65
2022-11-25T21:44:46.841Z,7.55
2022-11-25T21:47:23.119Z,8.00
2022-11-25T21:49:50.858Z,8.88
2022-11-25T21:52:18.660Z,9.50
2022-11-25T21:54:45.554Z,10.38
2022-11-25T21:57:17.543Z,10.40
2022-11-25T21:59:47.710Z,7.28
2022-11-25T22:02:21.468Z,10.48
2022-11-25T22:04:48.319Z,6.78
2022-11-25T22:07:15.396Z,9.73
2022-11-25T22:09:42.448Z,9.65
2022-11-25T22:12:30.066Z,6.38
2022-11-25T22:14:59.333Z,5.95
2022-11-25T22:17:26.725Z,10.45
2022-11-25T22:19:53.717Z,8.70
2022-11-25T22:22:20.766Z,8.52
2022-11-25T22:24:47.666Z,9.90
2022-11-25T22:27:25.099Z,9.35
2022-11-25T22:29:52.954Z,12.70
2022-11-25T22:32:19.581Z,7.32
2022-11-25T22:34:46.486Z,11.63
2022-11-25T22:37:18.189Z,13.57
2022-11-25T22:39:45.095Z,9.60
2022-11-25T22:42:26.000Z,9.30
2022-11-25T22:44:54.100Z,17.70
2022-11-25T22:47:33.340Z,8.60
2022-11-25T22:50:02.440Z,9.00
2022-11-25T22:52:31.889Z,14.95
2022-11-25T22:55:02.115Z,11.80
2022-11-25T22:57:28.719Z,15.98
2022-11-25T22:59:55.277Z,12.30
2022-11-25T23:02:29.002Z,10.02
2022-11-25T23:04:56.382Z,9.80
2022-11-25T23:07:24.398Z,10.50
2022-11-25T23:09:52.028Z,10.40
2022-11-25T23:12:19.121Z,12.23
2022-11-25T23:14:46.120Z,7.45
2022-11-25T23:17:24.918Z,9.40
2022-11-25T23:19:52.228Z,10.55
2022-11-25T23:22:19.806Z,7.57
2022-11-25T23:24:48.668Z,6.75
2022-11-25T23:27:15.398Z,8.38
2022-11-25T23:29:42.188Z,7.75
2022-11-25T23:32:18.217Z,7.30
2022-11-25T23:34:45.178Z,6.60
2022-11-25T23:37:15.110Z,12.00
2022-11-25T23:39:42.070Z,14.20
2022-11-25T23:42:19.169Z,9.27
2022-11-25T23:44:46.120Z,8.85
2022-11-25T23:47:22.031Z,7.78
2022-11-25T23:49:51.443Z,7.70
2022-11-25T23:52:27.876Z,6.82
2022-11-25T23:54:55.286Z,8.45
2022-11-25T23:57:28.115Z,8.45
2022-11-25T23:59:54.724Z,7.70
